sensor_id;sensor_type;location;lat;lon;timestamp;P1;durP1;ratioP1;P2;durP2;ratioP2
19482;SDS011;9882;51.166;6.992;2023-07-24T00:02:12;3.00;;;2.03;;
19482;SDS011;9882;51.166;6.992;2023-07-24T00:04:47;5.03;;;2.25;;
19482;SDS011;9882;51.166;6.992;2023-07-24T00:07:18;2.80;;;2.05;;
19482;SDS011;9882;51.166;6.992;2023-07-24T00:09:47;5.18;;;2.67;;
19482;SDS011;9882;51.166;6.992;2023-07-24T00:12:16;4.22;;;2.55;;
19482;SDS011;9882;51.166;6.992;2023-07-24T00:14:45;6.10;;;2.58;;
19482;SDS011;9882;51.166;6.992;2023-07-24T00:17:14;4.30;;;2.95;;
19482;SDS011;9882;51.166;6.992;2023-07-24T00:19:49;4.78;;;2.40;;
19482;SDS011;9882;51.166;6.992;2023-07-24T00:22:20;7.07;;;2.45;;
19482;SDS011;9882;51.166;6.992;2023-07-24T00:24:49;5.07;;;2.75;;
19482;SDS011;9882;51.166;6.992;2023-07-24T00:27:18;4.88;;;2.55;;
19482;SDS011;9882;51.166;6.992;2023-07-24T00:29:47;3.55;;;2.30;;
19482;SDS011;9882;51.166;6.992;2023-07-24T00:32:19;5.25;;;2.70;;
19482;SDS011;9882;51.166;6.992;2023-07-24T00:34:48;4.07;;;2.38;;
19482;SDS011;9882;51.166;6.992;2023-07-24T00:37:17;4.68;;;2.65;;
19482;SDS011;9882;51.166;6.992;2023-07-24T00:39:49;4.22;;;2.40;;
19482;SDS011;9882;51.166;6.992;2023-07-24T00:42:20;4.57;;;2.70;;
19482;SDS011;9882;51.166;6.992;2023-07-24T00:44:49;5.38;;;2.45;;
19482;SDS011;9882;51.166;6.992;2023-07-24T00:47:18;5.65;;;2.63;;
19482;SDS011;9882;51.166;6.992;2023-07-24T00:49:47;5.80;;;2.45;;
19482;SDS011;9882;51.166;6.992;2023-07-24T00:52:17;4.35;;;2.67;;
19482;SDS011;9882;51.166;6.992;2023-07-24T00:54:49;5.65;;;2.50;;
19482;SDS011;9882;51.166;6.992;2023-07-24T00:57:18;5.78;;;2.60;;
19482;SDS011;9882;51.166;6.992;2023-07-24T00:59:47;3.30;;;2.45;;
19482;SDS011;9882;51.166;6.992;2023-07-24T01:02:17;2.75;;;2.33;;
19482;SDS011;9882;51.166;6.992;2023-07-24T01:04:47;7.10;;;2.83;;
19482;SDS011;9882;51.166;6.992;2023-07-24T01:07:19;6.32;;;3.00;;
19482;SDS011;9882;51.166;6.992;2023-07-24T01:09:50;7.32;;;2.38;;
19482;SDS011;9882;51.166;6.992;2023-07-24T01:12:22;5.97;;;2.95;;
19482;SDS011;9882;51.166;6.992;2023-07-24T01:15:06;5.45;;;2.80;;
19482;SDS011;9882;51.166;6.992;2023-07-24T01:17:43;6.35;;;2.38;;
19482;SDS011;9882;51.166;6.992;2023-07-24T01:20:16;6.63;;;3.20;;
19482;SDS011;9882;51.166;6.992;2023-07-24T01:22:48;5.53;;;2.65;;
19482;SDS011;9882;51.166;6.992;2023-07-24T01:25:34;3.55;;;2.47;;
19482;SDS011;9882;51.166;6.992;2023-07-24T01:28:07;5.78;;;3.10;;
19482;SDS011;9882;51.166;6.992;2023-07-24T01:30:38;4.78;;;2.50;;
19482;SDS011;9882;51.166;6.992;2023-07-24T01:33:08;7.15;;;3.10;;
19482;SDS011;9882;51.166;6.992;2023-07-24T01:35:38;2.33;;;2.08;;
19482;SDS011;9882;51.166;6.992;2023-07-24T01:38:07;7.40;;;3.10;;
19482;SDS011;9882;51.166;6.992;2023-07-24T01:40:37;3.38;;;2.35;;
19482;SDS011;9882;51.166;6.992;2023-07-24T01:43:09;3.22;;;2.55;;
19482;SDS011;9882;51.166;6.992;2023-07-24T01:45:42;4.65;;;2.90;;
19482;SDS011;9882;51.166;6.992;2023-07-24T01:48:12;4.78;;;2.78;;
19482;SDS011;9882;51.166;6.992;2023-07-24T01:50:41;6.07;;;2.83;;
19482;SDS011;9882;51.166;6.992;2023-07-24T01:53:10;10.60;;;3.65;;
19482;SDS011;9882;51.166;6.992;2023-07-24T01:55:39;2.75;;;2.45;;
19482;SDS011;9882;51.166;6.992;2023-07-24T01:58:09;6.07;;;2.60;;
19482;SDS011;9882;51.166;6.992;2023-07-24T02:00:38;5.72;;;2.58;;
19482;SDS011;9882;51.166;6.992;2023-07-24T02:03:07;5.93;;;2.70;;
19482;SDS011;9882;51.166;6.992;2023-07-24T02:05:37;5.32;;;2.80;;
19482;SDS011;9882;51.166;6.992;2023-07-24T02:08:05;5.25;;;3.08;;
19482;SDS011;9882;51.166;6.992;2023-07-24T02:10:36;3.92;;;2.70;;
19482;SDS011;9882;51.166;6.992;2023-07-24T02:13:06;5.43;;;3.00;;
19482;SDS011;9882;51.166;6.992;2023-07-24T02:15:37;10.88;;;3.00;;
19482;SDS011;9882;51.166;6.992;2023-07-24T02:18:08;8.88;;;2.63;;
19482;SDS011;9882;51.166;6.992;2023-07-24T02:20:37;4.97;;;2.88;;
19482;SDS011;9882;51.166;6.992;2023-07-24T02:23:07;10.80;;;3.40;;
19482;SDS011;9882;51.166;6.992;2023-07-24T02:25:38;6.72;;;3.15;;
19482;SDS011;9882;51.166;6.992;2023-07-24T02:28:07;6.05;;;2.78;;
19482;SDS011;9882;51.166;6.992;2023-07-24T02:30:38;8.75;;;3.20;;
19482;SDS011;9882;51.166;6.992;2023-07-24T02:33:07;5.32;;;2.92;;
19482;SDS011;9882;51.166;6.992;2023-07-24T02:35:40;5.47;;;2.92;;
19482;SDS011;9882;51.166;6.992;2023-07-24T02:38:09;9.20;;;3.55;;
19482;SDS011;9882;51.166;6.992;2023-07-24T02:40:40;7.85;;;3.28;;
19482;SDS011;9882;51.166;6.992;2023-07-24T02:43:10;5.93;;;3.50;;
19482;SDS011;9882;51.166;6.992;2023-07-24T02:45:40;6.07;;;3.03;;
19482;SDS011;9882;51.166;6.992;2023-07-24T02:48:09;6.47;;;3.05;;
19482;SDS011;9882;51.166;6.992;2023-07-24T02:50:38;6.18;;;2.83;;
19482;SDS011;9882;51.166;6.992;2023-07-24T02:53:07;6.45;;;3.00;;
19482;SDS011;9882;51.166;6.992;2023-07-24T02:55:36;9.43;;;3.08;;
19482;SDS011;9882;51.166;6.992;2023-07-24T02:58:05;6.90;;;2.80;;
19482;SDS011;9882;51.166;6.992;2023-07-24T03:00:34;14.55;;;3.50;;
19482;SDS011;9882;51.166;6.992;2023-07-24T03:03:04;6.40;;;3.08;;
19482;SDS011;9882;51.166;6.992;2023-07-24T03:05:33;11.32;;;3.78;;
19482;SDS011;9882;51.166;6.992;2023-07-24T03:08:06;8.38;;;3.45;;
19482;SDS011;9882;51.166;6.992;2023-07-24T03:10:39;7.88;;;3.10;;
19482;SDS011;9882;51.166;6.992;2023-07-24T03:13:08;6.43;;;3.00;;
19482;SDS011;9882;51.166;6.992;2023-07-24T03:15:37;7.95;;;3.15;;
19482;SDS011;9882;51.166;6.992;2023-07-24T03:18:08;5.25;;;2.70;;
19482;SDS011;9882;51.166;6.992;2023-07-24T03:20:37;4.90;;;3.00;;
19482;SDS011;9882;51.166;6.992;2023-07-24T03:23:05;6.55;;;3.05;;
19482;SDS011;9882;51.166;6.992;2023-07-24T03:25:34;8.75;;;3.67;;
19482;SDS011;9882;51.166;6.992;2023-07-24T03:28:03;9.45;;;3.42;;
19482;SDS011;9882;51.166;6.992;2023-07-24T03:30:32;7.35;;;2.95;;
19482;SDS011;9882;51.166;6.992;2023-07-24T03:33:05;8.75;;;3.60;;
19482;SDS011;9882;51.166;6.992;2023-07-24T03:35:38;11.68;;;3.35;;
19482;SDS011;9882;51.166;6.992;2023-07-24T03:38:10;7.10;;;3.70;;
19482;SDS011;9882;51.166;6.992;2023-07-24T03:40:39;7.53;;;3.65;;
19482;SDS011;9882;51.166;6.992;2023-07-24T03:43:09;5.60;;;3.22;;
19482;SDS011;9882;51.166;6.992;2023-07-24T03:45:41;8.38;;;3.10;;
19482;SDS011;9882;51.166;6.992;2023-07-24T03:48:13;9.57;;;3.47;;
19482;SDS011;9882;51.166;6.992;2023-07-24T03:50:42;7.82;;;3.17;;
19482;SDS011;9882;51.166;6.992;2023-07-24T03:53:11;6.22;;;3.25;;
19482;SDS011;9882;51.166;6.992;2023-07-24T03:55:40;7.78;;;3.60;;
19482;SDS011;9882;51.166;6.992;2023-07-24T03:58:11;6.82;;;3.20;;
19482;SDS011;9882;51.166;6.992;2023-07-24T04:00:43;8.05;;;3.50;;
19482;SDS011;9882;51.166;6.992;2023-07-24T04:03:14;7.28;;;3.42;;
19482;SDS011;9882;51.166;6.992;2023-07-24T04:05:45;6.95;;;3.17;;
19482;SDS011;9882;51.166;6.992;2023-07-24T04:08:18;7.75;;;3.33;;
19482;SDS011;9882;51.166;6.992;2023-07-24T04:10:47;8.15;;;3.30;;
19482;SDS011;9882;51.166;6.992;2023-07-24T04:13:21;9.05;;;3.40;;
19482;SDS011;9882;51.166;6.992;2023-07-24T04:15:50;8.13;;;3.35;;
19482;SDS011;9882;51.166;6.992;2023-07-24T04:18:25;8.57;;;3.65;;
19482;SDS011;9882;51.166;6.992;2023-07-24T04:20:55;11.00;;;3.65;;
19482;SDS011;9882;51.166;6.992;2023-07-24T04:23:24;7.10;;;3.42;;
19482;SDS011;9882;51.166;6.992;2023-07-24T04:25:53;6.50;;;3.42;;
19482;SDS011;9882;51.166;6.992;2023-07-24T04:28:22;6.63;;;3.30;;
19482;SDS011;9882;51.166;6.992;2023-07-24T04:30:52;7.45;;;3.15;;
19482;SDS011;9882;51.166;6.992;2023-07-24T04:33:21;10.45;;;3.60;;
19482;SDS011;9882;51.166;6.992;2023-07-24T04:35:55;5.38;;;3.03;;
19482;SDS011;9882;51.166;6.992;2023-07-24T04:38:24;12.18;;;4.05;;
19482;SDS011;9882;51.166;6.992;2023-07-24T04:40:54;8.93;;;4.00;;
19482;SDS011;9882;51.166;6.992;2023-07-24T04:43:23;8.00;;;3.35;;
19482;SDS011;9882;51.166;6.992;2023-07-24T04:45:52;7.70;;;3.42;;
19482;SDS011;9882;51.166;6.992;2023-07-24T04:48:21;6.80;;;3.38;;
19482;SDS011;9882;51.166;6.992;2023-07-24T04:50:52;9.70;;;3.30;;
19482;SDS011;9882;51.166;6.992;2023-07-24T04:53:24;11.00;;;3.90;;
19482;SDS011;9882;51.166;6.992;2023-07-24T04:55:53;9.07;;;3.13;;
19482;SDS011;9882;51.166;6.992;2023-07-24T04:58:22;8.05;;;3.65;;
19482;SDS011;9882;51.166;6.992;2023-07-24T05:00:51;9.73;;;4.07;;
19482;SDS011;9882;51.166;6.992;2023-07-24T05:03:20;8.07;;;4.13;;
19482;SDS011;9882;51.166;6.992;2023-07-24T05:05:53;10.02;;;3.65;;
19482;SDS011;9882;51.166;6.992;2023-07-24T05:08:24;9.45;;;3.88;;
19482;SDS011;9882;51.166;6.992;2023-07-24T05:10:54;11.10;;;3.85;;
19482;SDS011;9882;51.166;6.992;2023-07-24T05:13:23;6.60;;;3.20;;
19482;SDS011;9882;51.166;6.992;2023-07-24T05:15:52;9.82;;;4.35;;
19482;SDS011;9882;51.166;6.992;2023-07-24T05:18:21;7.00;;;3.65;;
19482;SDS011;9882;51.166;6.992;2023-07-24T05:20:50;6.68;;;3.60;;
19482;SDS011;9882;51.166;6.992;2023-07-24T05:23:19;10.40;;;3.85;;
19482;SDS011;9882;51.166;6.992;2023-07-24T05:25:57;8.50;;;3.60;;
19482;SDS011;9882;51.166;6.992;2023-07-24T05:28:27;7.32;;;3.55;;
19482;SDS011;9882;51.166;6.992;2023-07-24T05:30:59;8.15;;;3.63;;
19482;SDS011;9882;51.166;6.992;2023-07-24T05:33:29;10.93;;;4.15;;
19482;SDS011;9882;51.166;6.992;2023-07-24T05:35:59;16.00;;;4.20;;
19482;SDS011;9882;51.166;6.992;2023-07-24T05:38:28;9.82;;;3.80;;
19482;SDS011;9882;51.166;6.992;2023-07-24T05:41:00;15.23;;;4.88;;
19482;SDS011;9882;51.166;6.992;2023-07-24T05:43:30;10.95;;;4.20;;
19482;SDS011;9882;51.166;6.992;2023-07-24T05:46:00;7.15;;;3.28;;
19482;SDS011;9882;51.166;6.992;2023-07-24T05:48:29;12.95;;;4.10;;
19482;SDS011;9882;51.166;6.992;2023-07-24T05:50:58;6.38;;;3.35;;
19482;SDS011;9882;51.166;6.992;2023-07-24T05:53:28;8.55;;;3.72;;
19482;SDS011;9882;51.166;6.992;2023-07-24T05:55:57;11.18;;;4.18;;
19482;SDS011;9882;51.166;6.992;2023-07-24T05:58:29;11.45;;;4.03;;
19482;SDS011;9882;51.166;6.992;2023-07-24T06:00:58;10.93;;;4.30;;
19482;SDS011;9882;51.166;6.992;2023-07-24T06:03:28;11.55;;;3.85;;
19482;SDS011;9882;51.166;6.992;2023-07-24T06:05:57;14.18;;;4.70;;
19482;SDS011;9882;51.166;6.992;2023-07-24T06:08:27;9.48;;;3.65;;
19482;SDS011;9882;51.166;6.992;2023-07-24T06:10:57;9.27;;;4.03;;
19482;SDS011;9882;51.166;6.992;2023-07-24T06:13:28;7.85;;;3.65;;
19482;SDS011;9882;51.166;6.992;2023-07-24T06:15:57;8.32;;;3.63;;
19482;SDS011;9882;51.166;6.992;2023-07-24T06:18:27;7.70;;;3.95;;
19482;SDS011;9882;51.166;6.992;2023-07-24T06:20:57;10.10;;;3.88;;
19482;SDS011;9882;51.166;6.992;2023-07-24T06:23:28;7.78;;;3.65;;
19482;SDS011;9882;51.166;6.992;2023-07-24T06:25:57;16.85;;;4.38;;
19482;SDS011;9882;51.166;6.992;2023-07-24T06:28:28;8.65;;;4.03;;
19482;SDS011;9882;51.166;6.992;2023-07-24T06:30:58;14.85;;;4.38;;
19482;SDS011;9882;51.166;6.992;2023-07-24T06:33:28;15.73;;;4.32;;
19482;SDS011;9882;51.166;6.992;2023-07-24T06:35:57;10.52;;;3.97;;
19482;SDS011;9882;51.166;6.992;2023-07-24T06:38:26;11.85;;;4.05;;
19482;SDS011;9882;51.166;6.992;2023-07-24T06:40:55;11.48;;;4.10;;
19482;SDS011;9882;51.166;6.992;2023-07-24T06:43:24;9.55;;;3.92;;
19482;SDS011;9882;51.166;6.992;2023-07-24T06:45:56;9.02;;;3.92;;
19482;SDS011;9882;51.166;6.992;2023-07-24T06:48:25;9.57;;;3.88;;
19482;SDS011;9882;51.166;6.992;2023-07-24T06:50:54;14.30;;;4.38;;
19482;SDS011;9882;51.166;6.992;2023-07-24T06:53:24;8.00;;;3.67;;
19482;SDS011;9882;51.166;6.992;2023-07-24T06:55:53;11.50;;;3.95;;
19482;SDS011;9882;51.166;6.992;2023-07-24T06:58:22;6.82;;;3.53;;
19482;SDS011;9882;51.166;6.992;2023-07-24T07:00:51;9.27;;;3.70;;
19482;SDS011;9882;51.166;6.992;2023-07-24T07:03:22;8.63;;;3.00;;
19482;SDS011;9882;51.166;6.992;2023-07-24T07:06:05;9.55;;;3.67;;
19482;SDS011;9882;51.166;6.992;2023-07-24T07:08:43;12.07;;;3.42;;
19482;SDS011;9882;51.166;6.992;2023-07-24T07:11:12;10.82;;;4.07;;
19482;SDS011;9882;51.166;6.992;2023-07-24T07:13:44;8.52;;;3.70;;
19482;SDS011;9882;51.166;6.992;2023-07-24T07:16:14;10.30;;;3.30;;
19482;SDS011;9882;51.166;6.992;2023-07-24T07:18:57;11.23;;;3.42;;
19482;SDS011;9882;51.166;6.992;2023-07-24T07:24:28;10.93;;;3.42;;
19482;SDS011;9882;51.166;6.992;2023-07-24T07:27:08;10.00;;;3.45;;
19482;SDS011;9882;51.166;6.992;2023-07-24T07:30:19;8.35;;;3.13;;
19482;SDS011;9882;51.166;6.992;2023-07-24T07:38:03;8.05;;;3.22;;
19482;SDS011;9882;51.166;6.992;2023-07-24T07:40:47;8.75;;;3.20;;
19482;SDS011;9882;51.166;6.992;2023-07-24T07:43:22;8.02;;;3.53;;
19482;SDS011;9882;51.166;6.992;2023-07-24T07:45:51;6.63;;;3.50;;
19482;SDS011;9882;51.166;6.992;2023-07-24T07:48:19;7.60;;;2.97;;
19482;SDS011;9882;51.166;6.992;2023-07-24T07:50:50;8.27;;;3.60;;
19482;SDS011;9882;51.166;6.992;2023-07-24T07:53:20;9.20;;;3.45;;
19482;SDS011;9882;51.166;6.992;2023-07-24T07:55:55;9.88;;;3.13;;
19482;SDS011;9882;51.166;6.992;2023-07-24T07:58:25;4.28;;;2.70;;
19482;SDS011;9882;51.166;6.992;2023-07-24T08:00:55;8.48;;;3.25;;
19482;SDS011;9882;51.166;6.992;2023-07-24T08:03:24;8.55;;;2.88;;
19482;SDS011;9882;51.166;6.992;2023-07-24T08:05:59;6.82;;;3.10;;
19482;SDS011;9882;51.166;6.992;2023-07-24T08:11:37;7.43;;;3.30;;
19482;SDS011;9882;51.166;6.992;2023-07-24T08:14:34;7.72;;;3.10;;
19482;SDS011;9882;51.166;6.992;2023-07-24T08:17:04;9.15;;;2.90;;
19482;SDS011;9882;51.166;6.992;2023-07-24T08:19:36;10.48;;;3.20;;
19482;SDS011;9882;51.166;6.992;2023-07-24T08:22:05;9.25;;;3.30;;
19482;SDS011;9882;51.166;6.992;2023-07-24T08:24:35;7.28;;;2.83;;
19482;SDS011;9882;51.166;6.992;2023-07-24T08:27:04;9.48;;;3.22;;
19482;SDS011;9882;51.166;6.992;2023-07-24T08:29:33;7.90;;;2.90;;
19482;SDS011;9882;51.166;6.992;2023-07-24T08:32:02;8.55;;;3.03;;
19482;SDS011;9882;51.166;6.992;2023-07-24T08:34:33;5.95;;;3.25;;
19482;SDS011;9882;51.166;6.992;2023-07-24T08:37:01;10.27;;;3.47;;
19482;SDS011;9882;51.166;6.992;2023-07-24T08:39:30;9.65;;;4.00;;
19482;SDS011;9882;51.166;6.992;2023-07-24T08:42:00;9.10;;;3.45;;
19482;SDS011;9882;51.166;6.992;2023-07-24T08:44:36;6.57;;;3.05;;
19482;SDS011;9882;51.166;6.992;2023-07-24T08:47:06;5.68;;;2.85;;
19482;SDS011;9882;51.166;6.992;2023-07-24T08:49:38;4.70;;;3.13;;
19482;SDS011;9882;51.166;6.992;2023-07-24T08:52:08;8.00;;;3.10;;
19482;SDS011;9882;51.166;6.992;2023-07-24T08:54:40;6.88;;;3.35;;
19482;SDS011;9882;51.166;6.992;2023-07-24T08:57:10;10.02;;;3.67;;
19482;SDS011;9882;51.166;6.992;2023-07-24T08:59:40;8.50;;;3.92;;
19482;SDS011;9882;51.166;6.992;2023-07-24T09:02:08;13.35;;;3.90;;
19482;SDS011;9882;51.166;6.992;2023-07-24T09:04:37;9.30;;;3.63;;
19482;SDS011;9882;51.166;6.992;2023-07-24T09:07:05;12.88;;;3.60;;
19482;SDS011;9882;51.166;6.992;2023-07-24T09:09:34;9.45;;;3.95;;
19482;SDS011;9882;51.166;6.992;2023-07-24T09:12:03;8.80;;;3.53;;
19482;SDS011;9882;51.166;6.992;2023-07-24T09:14:34;10.65;;;3.60;;
19482;SDS011;9882;51.166;6.992;2023-07-24T09:17:03;6.78;;;3.35;;
19482;SDS011;9882;51.166;6.992;2023-07-24T09:19:32;15.70;;;4.10;;
19482;SDS011;9882;51.166;6.992;2023-07-24T09:22:08;11.95;;;3.35;;
19482;SDS011;9882;51.166;6.992;2023-07-24T09:24:48;8.25;;;3.58;;
19482;SDS011;9882;51.166;6.992;2023-07-24T09:27:18;8.50;;;3.40;;
19482;SDS011;9882;51.166;6.992;2023-07-24T09:29:48;6.75;;;3.47;;
19482;SDS011;9882;51.166;6.992;2023-07-24T09:32:21;7.90;;;3.80;;
19482;SDS011;9882;51.166;6.992;2023-07-24T09:34:50;6.38;;;3.42;;
19482;SDS011;9882;51.166;6.992;2023-07-24T09:37:24;7.95;;;3.63;;
19482;SDS011;9882;51.166;6.992;2023-07-24T09:39:54;12.52;;;3.85;;
19482;SDS011;9882;51.166;6.992;2023-07-24T09:42:29;9.55;;;3.78;;
19482;SDS011;9882;51.166;6.992;2023-07-24T09:45:00;8.70;;;3.33;;
19482;SDS011;9882;51.166;6.992;2023-07-24T09:47:29;6.65;;;3.13;;
19482;SDS011;9882;51.166;6.992;2023-07-24T09:50:18;9.02;;;3.05;;
19482;SDS011;9882;51.166;6.992;2023-07-24T09:52:46;11.68;;;3.85;;
19482;SDS011;9882;51.166;6.992;2023-07-24T09:55:17;13.18;;;3.83;;
19482;SDS011;9882;51.166;6.992;2023-07-24T09:57:55;7.72;;;3.33;;
19482;SDS011;9882;51.166;6.992;2023-07-24T10:00:27;7.65;;;3.17;;
19482;SDS011;9882;51.166;6.992;2023-07-24T10:02:56;8.05;;;3.22;;
19482;SDS011;9882;51.166;6.992;2023-07-24T10:05:26;5.88;;;3.50;;
19482;SDS011;9882;51.166;6.992;2023-07-24T10:07:56;11.98;;;3.40;;
19482;SDS011;9882;51.166;6.992;2023-07-24T10:10:26;7.72;;;3.67;;
19482;SDS011;9882;51.166;6.992;2023-07-24T10:12:57;9.95;;;3.97;;
19482;SDS011;9882;51.166;6.992;2023-07-24T10:15:27;10.18;;;3.45;;
19482;SDS011;9882;51.166;6.992;2023-07-24T10:18:01;8.02;;;3.13;;
19482;SDS011;9882;51.166;6.992;2023-07-24T10:20:33;9.93;;;3.55;;
19482;SDS011;9882;51.166;6.992;2023-07-24T10:23:03;7.07;;;3.13;;
19482;SDS011;9882;51.166;6.992;2023-07-24T10:25:32;8.05;;;3.05;;
19482;SDS011;9882;51.166;6.992;2023-07-24T10:28:02;6.88;;;3.08;;
19482;SDS011;9882;51.166;6.992;2023-07-24T10:30:35;7.13;;;3.28;;
19482;SDS011;9882;51.166;6.992;2023-07-24T10:33:05;4.68;;;2.85;;
19482;SDS011;9882;51.166;6.992;2023-07-24T10:35:42;8.63;;;3.03;;
19482;SDS011;9882;51.166;6.992;2023-07-24T10:38:12;6.13;;;2.85;;
19482;SDS011;9882;51.166;6.992;2023-07-24T10:40:43;10.80;;;2.92;;
19482;SDS011;9882;51.166;6.992;2023-07-24T10:43:19;7.43;;;2.80;;
19482;SDS011;9882;51.166;6.992;2023-07-24T10:45:50;8.30;;;3.15;;
19482;SDS011;9882;51.166;6.992;2023-07-24T10:48:20;10.63;;;3.53;;
19482;SDS011;9882;51.166;6.992;2023-07-24T10:50:50;9.48;;;3.03;;
19482;SDS011;9882;51.166;6.992;2023-07-24T10:53:20;5.63;;;2.80;;
19482;SDS011;9882;51.166;6.992;2023-07-24T10:55:50;9.80;;;3.13;;
19482;SDS011;9882;51.166;6.992;2023-07-24T10:58:19;7.18;;;2.78;;
19482;SDS011;9882;51.166;6.992;2023-07-24T11:00:53;4.85;;;3.00;;
19482;SDS011;9882;51.166;6.992;2023-07-24T11:03:26;7.25;;;2.72;;
19482;SDS011;9882;51.166;6.992;2023-07-24T11:05:56;8.38;;;2.60;;
19482;SDS011;9882;51.166;6.992;2023-07-24T11:08:25;7.68;;;2.60;;
19482;SDS011;9882;51.166;6.992;2023-07-24T11:10:54;5.68;;;2.72;;
19482;SDS011;9882;51.166;6.992;2023-07-24T11:13:25;6.60;;;2.35;;
19482;SDS011;9882;51.166;6.992;2023-07-24T11:15:56;5.25;;;2.60;;
19482;SDS011;9882;51.166;6.992;2023-07-24T11:18:44;9.02;;;2.90;;
19482;SDS011;9882;51.166;6.992;2023-07-24T11:21:19;5.60;;;2.85;;
19482;SDS011;9882;51.166;6.992;2023-07-24T11:23:48;6.72;;;3.25;;
19482;SDS011;9882;51.166;6.992;2023-07-24T11:26:18;9.73;;;2.85;;
19482;SDS011;9882;51.166;6.992;2023-07-24T11:28:48;4.00;;;2.72;;
19482;SDS011;9882;51.166;6.992;2023-07-24T11:31:18;8.40;;;2.95;;
19482;SDS011;9882;51.166;6.992;2023-07-24T11:33:48;7.38;;;3.05;;
19482;SDS011;9882;51.166;6.992;2023-07-24T11:36:18;5.90;;;2.80;;
19482;SDS011;9882;51.166;6.992;2023-07-24T11:38:48;9.70;;;3.08;;
19482;SDS011;9882;51.166;6.992;2023-07-24T11:41:16;5.93;;;3.08;;
19482;SDS011;9882;51.166;6.992;2023-07-24T11:43:45;11.57;;;3.47;;
19482;SDS011;9882;51.166;6.992;2023-07-24T11:46:26;7.35;;;3.20;;
19482;SDS011;9882;51.166;6.992;2023-07-24T11:48:57;10.80;;;3.75;;
19482;SDS011;9882;51.166;6.992;2023-07-24T11:51:25;9.68;;;3.67;;
19482;SDS011;9882;51.166;6.992;2023-07-24T11:54:03;9.50;;;3.60;;
19482;SDS011;9882;51.166;6.992;2023-07-24T11:56:34;9.30;;;3.45;;
19482;SDS011;9882;51.166;6.992;2023-07-24T11:59:09;5.45;;;2.40;;
19482;SDS011;9882;51.166;6.992;2023-07-24T12:01:40;4.75;;;2.60;;
19482;SDS011;9882;51.166;6.992;2023-07-24T12:04:08;5.40;;;2.50;;
19482;SDS011;9882;51.166;6.992;2023-07-24T12:06:38;3.40;;;2.40;;
19482;SDS011;9882;51.166;6.992;2023-07-24T12:09:06;4.40;;;2.58;;
19482;SDS011;9882;51.166;6.992;2023-07-24T12:11:38;7.15;;;2.92;;
19482;SDS011;9882;51.166;6.992;2023-07-24T12:14:10;2.50;;;1.92;;
19482;SDS011;9882;51.166;6.992;2023-07-24T12:16:40;5.07;;;2.58;;
19482;SDS011;9882;51.166;6.992;2023-07-24T12:19:09;6.18;;;2.83;;
19482;SDS011;9882;51.166;6.992;2023-07-24T12:21:37;5.63;;;2.60;;
19482;SDS011;9882;51.166;6.992;2023-07-24T12:24:06;8.30;;;2.60;;
19482;SDS011;9882;51.166;6.992;2023-07-24T12:26:34;8.25;;;2.60;;
19482;SDS011;9882;51.166;6.992;2023-07-24T12:29:03;3.80;;;2.50;;
19482;SDS011;9882;51.166;6.992;2023-07-24T12:31:32;6.78;;;2.70;;
19482;SDS011;9882;51.166;6.992;2023-07-24T12:34:02;7.28;;;2.45;;
19482;SDS011;9882;51.166;6.992;2023-07-24T12:36:30;7.45;;;2.38;;
19482;SDS011;9882;51.166;6.992;2023-07-24T12:38:59;3.40;;;2.38;;
19482;SDS011;9882;51.166;6.992;2023-07-24T12:41:27;8.68;;;2.42;;
19482;SDS011;9882;51.166;6.992;2023-07-24T12:43:56;5.53;;;2.70;;
19482;SDS011;9882;51.166;6.992;2023-07-24T12:46:26;4.85;;;2.38;;
19482;SDS011;9882;51.166;6.992;2023-07-24T12:48:55;6.28;;;2.65;;
19482;SDS011;9882;51.166;6.992;2023-07-24T12:51:25;7.53;;;2.53;;
19482;SDS011;9882;51.166;6.992;2023-07-24T12:53:53;4.40;;;1.90;;
19482;SDS011;9882;51.166;6.992;2023-07-24T12:56:23;3.35;;;2.13;;
19482;SDS011;9882;51.166;6.992;2023-07-24T12:58:51;5.40;;;2.22;;
19482;SDS011;9882;51.166;6.992;2023-07-24T13:01:20;4.15;;;2.00;;
19482;SDS011;9882;51.166;6.992;2023-07-24T13:03:48;3.92;;;2.35;;
19482;SDS011;9882;51.166;6.992;2023-07-24T13:06:17;5.53;;;2.05;;
19482;SDS011;9882;51.166;6.992;2023-07-24T13:08:47;2.40;;;1.95;;
19482;SDS011;9882;51.166;6.992;2023-07-24T13:11:15;3.70;;;2.13;;
19482;SDS011;9882;51.166;6.992;2023-07-24T13:13:44;1.63;;;1.52;;
19482;SDS011;9882;51.166;6.992;2023-07-24T13:16:12;3.47;;;1.85;;
19482;SDS011;9882;51.166;6.992;2023-07-24T13:18:41;4.35;;;2.15;;
19482;SDS011;9882;51.166;6.992;2023-07-24T13:21:09;2.30;;;1.90;;
19482;SDS011;9882;51.166;6.992;2023-07-24T13:23:38;3.47;;;1.70;;
19482;SDS011;9882;51.166;6.992;2023-07-24T13:26:12;4.15;;;1.92;;
19482;SDS011;9882;51.166;6.992;2023-07-24T13:28:41;4.75;;;1.90;;
19482;SDS011;9882;51.166;6.992;2023-07-24T13:31:13;5.35;;;2.05;;
19482;SDS011;9882;51.166;6.992;2023-07-24T13:33:42;6.70;;;2.28;;
19482;SDS011;9882;51.166;6.992;2023-07-24T13:36:11;3.40;;;1.90;;
19482;SDS011;9882;51.166;6.992;2023-07-24T13:38:40;4.65;;;2.13;;
19482;SDS011;9882;51.166;6.992;2023-07-24T13:41:09;4.05;;;1.98;;
19482;SDS011;9882;51.166;6.992;2023-07-24T13:43:38;5.80;;;1.85;;
19482;SDS011;9882;51.166;6.992;2023-07-24T13:46:07;3.63;;;1.95;;
19482;SDS011;9882;51.166;6.992;2023-07-24T13:48:35;2.55;;;1.77;;
19482;SDS011;9882;51.166;6.992;2023-07-24T13:51:04;1.92;;;1.65;;
19482;SDS011;9882;51.166;6.992;2023-07-24T13:53:32;2.97;;;1.63;;
19482;SDS011;9882;51.166;6.992;2023-07-24T13:56:01;3.30;;;1.55;;
19482;SDS011;9882;51.166;6.992;2023-07-24T13:58:30;5.88;;;2.08;;
19482;SDS011;9882;51.166;6.992;2023-07-24T14:01:00;2.83;;;1.67;;
19482;SDS011;9882;51.166;6.992;2023-07-24T14:03:29;4.63;;;2.03;;
19482;SDS011;9882;51.166;6.992;2023-07-24T14:05:57;1.88;;;1.70;;
19482;SDS011;9882;51.166;6.992;2023-07-24T14:08:26;3.67;;;1.85;;
19482;SDS011;9882;51.166;6.992;2023-07-24T14:10:54;6.80;;;2.28;;
19482;SDS011;9882;51.166;6.992;2023-07-24T14:13:23;2.55;;;2.03;;
19482;SDS011;9882;51.166;6.992;2023-07-24T14:15:51;4.80;;;2.28;;
19482;SDS011;9882;51.166;6.992;2023-07-24T14:18:21;2.47;;;1.80;;
19482;SDS011;9882;51.166;6.992;2023-07-24T14:20:50;4.40;;;2.15;;
19482;SDS011;9882;51.166;6.992;2023-07-24T14:23:21;6.75;;;2.03;;
19482;SDS011;9882;51.166;6.992;2023-07-24T14:25:49;6.15;;;2.20;;
19482;SDS011;9882;51.166;6.992;2023-07-24T14:28:18;3.10;;;1.98;;
19482;SDS011;9882;51.166;6.992;2023-07-24T14:30:47;3.97;;;1.88;;
19482;SDS011;9882;51.166;6.992;2023-07-24T14:33:15;5.97;;;2.38;;
19482;SDS011;9882;51.166;6.992;2023-07-24T14:35:45;2.67;;;1.80;;
19482;SDS011;9882;51.166;6.992;2023-07-24T14:38:13;4.55;;;1.80;;
19482;SDS011;9882;51.166;6.992;2023-07-24T14:40:42;2.58;;;2.00;;
19482;SDS011;9882;51.166;6.992;2023-07-24T14:43:10;2.42;;;1.65;;
19482;SDS011;9882;51.166;6.992;2023-07-24T14:45:39;3.85;;;2.03;;
19482;SDS011;9882;51.166;6.992;2023-07-24T14:48:07;5.55;;;2.55;;
19482;SDS011;9882;51.166;6.992;2023-07-24T14:50:36;3.45;;;1.85;;
19482;SDS011;9882;51.166;6.992;2023-07-24T14:53:06;1.73;;;1.63;;
19482;SDS011;9882;51.166;6.992;2023-07-24T14:55:35;1.63;;;1.52;;
19482;SDS011;9882;51.166;6.992;2023-07-24T14:58:03;2.30;;;1.85;;
19482;SDS011;9882;51.166;6.992;2023-07-24T15:00:32;4.60;;;1.95;;
19482;SDS011;9882;51.166;6.992;2023-07-24T15:03:00;2.70;;;1.80;;
19482;SDS011;9882;51.166;6.992;2023-07-24T15:05:29;4.10;;;1.73;;
19482;SDS011;9882;51.166;6.992;2023-07-24T15:07:57;5.97;;;2.47;;
19482;SDS011;9882;51.166;6.992;2023-07-24T15:10:27;3.00;;;2.00;;
19482;SDS011;9882;51.166;6.992;2023-07-24T15:12:56;5.30;;;2.13;;
19482;SDS011;9882;51.166;6.992;2023-07-24T15:15:24;3.53;;;1.95;;
19482;SDS011;9882;51.166;6.992;2023-07-24T15:17:53;2.83;;;1.92;;
19482;SDS011;9882;51.166;6.992;2023-07-24T15:20:23;4.88;;;2.10;;
19482;SDS011;9882;51.166;6.992;2023-07-24T15:22:51;6.38;;;2.00;;
19482;SDS011;9882;51.166;6.992;2023-07-24T15:25:20;2.38;;;1.85;;
19482;SDS011;9882;51.166;6.992;2023-07-24T15:27:50;3.55;;;1.65;;
19482;SDS011;9882;51.166;6.992;2023-07-24T15:30:18;4.85;;;2.25;;
19482;SDS011;9882;51.166;6.992;2023-07-24T15:32:47;2.40;;;1.85;;